sensor_id;sensor_type;location;lat;lon;timestamp;P1;durP1;ratioP1;P2;durP2;ratioP2
42668;SDS011;29384;42.028;21.388;2023-03-16T00:02:34;0.77;;;0.77;;
42668;SDS011;29384;42.028;21.388;2023-03-16T00:04:59;10.48;;;2.65;;
42668;SDS011;29384;42.028;21.388;2023-03-16T00:07:25;6.13;;;2.88;;
42668;SDS011;29384;42.028;21.388;2023-03-16T00:09:50;4.90;;;2.65;;
42668;SDS011;29384;42.028;21.388;2023-03-16T00:12:16;0.70;;;0.70;;
42668;SDS011;29384;42.028;21.388;2023-03-16T00:17:45;4.18;;;0.80;;
42668;SDS011;29384;42.028;21.388;2023-03-16T00:20:13;0.63;;;0.63;;
42668;SDS011;29384;42.028;21.388;2023-03-16T00:22:38;1.52;;;0.50;;
42668;SDS011;29384;42.028;21.388;2023-03-16T00:25:04;1.15;;;0.73;;
42668;SDS011;29384;42.028;21.388;2023-03-16T00:27:29;0.40;;;0.40;;
42668;SDS011;29384;42.028;21.388;2023-03-16T00:32:57;0.80;;;0.80;;
42668;SDS011;29384;42.028;21.388;2023-03-16T00:35:23;0.30;;;0.30;;
42668;SDS011;29384;42.028;21.388;2023-03-16T00:37:49;0.50;;;0.50;;
42668;SDS011;29384;42.028;21.388;2023-03-16T00:40:14;0.55;;;0.55;;
42668;SDS011;29384;42.028;21.388;2023-03-16T00:42:40;0.82;;;0.82;;
42668;SDS011;29384;42.028;21.388;2023-03-16T00:48:08;1.85;;;0.68;;
42668;SDS011;29384;42.028;21.388;2023-03-16T00:50:33;0.68;;;0.68;;
42668;SDS011;29384;42.028;21.388;2023-03-16T00:52:59;0.52;;;0.52;;
42668;SDS011;29384;42.028;21.388;2023-03-16T00:55:25;2.67;;;0.55;;
42668;SDS011;29384;42.028;21.388;2023-03-16T00:57:51;0.47;;;0.47;;
42668;SDS011;29384;42.028;21.388;2023-03-16T01:00:16;0.40;;;0.40;;
42668;SDS011;29384;42.028;21.388;2023-03-16T01:02:44;0.40;;;0.40;;
42668;SDS011;29384;42.028;21.388;2023-03-16T01:05:10;0.30;;;0.30;;
42668;SDS011;29384;42.028;21.388;2023-03-16T01:07:36;0.65;;;0.65;;
42668;SDS011;29384;42.028;21.388;2023-03-16T01:10:02;1.00;;;1.00;;
42668;SDS011;29384;42.028;21.388;2023-03-16T01:12:27;2.67;;;0.65;;
42668;SDS011;29384;42.028;21.388;2023-03-16T01:17:55;14.80;;;0.85;;
42668;SDS011;29384;42.028;21.388;2023-03-16T01:20:21;2.38;;;1.02;;
42668;SDS011;29384;42.028;21.388;2023-03-16T01:22:46;0.80;;;0.68;;
42668;SDS011;29384;42.028;21.388;2023-03-16T01:25:12;0.93;;;0.73;;
42668;SDS011;29384;42.028;21.388;2023-03-16T01:27:38;0.35;;;0.35;;
42668;SDS011;29384;42.028;21.388;2023-03-16T01:33:06;0.38;;;0.38;;
42668;SDS011;29384;42.028;21.388;2023-03-16T01:35:31;0.40;;;0.40;;
42668;SDS011;29384;42.028;21.388;2023-03-16T01:37:56;0.63;;;0.63;;
42668;SDS011;29384;42.028;21.388;2023-03-16T01:40:22;0.30;;;0.30;;
42668;SDS011;29384;42.028;21.388;2023-03-16T01:42:48;0.73;;;0.68;;
42668;SDS011;29384;42.028;21.388;2023-03-16T01:48:17;1.20;;;0.63;;
42668;SDS011;29384;42.028;21.388;2023-03-16T01:50:42;0.17;;;0.17;;
42668;SDS011;29384;42.028;21.388;2023-03-16T01:53:08;0.28;;;0.28;;
42668;SDS011;29384;42.028;21.388;2023-03-16T01:55:33;0.20;;;0.20;;
42668;SDS011;29384;42.028;21.388;2023-03-16T01:57:59;0.20;;;0.13;;
42668;SDS011;29384;42.028;21.388;2023-03-16T02:03:28;0.15;;;0.15;;
42668;SDS011;29384;42.028;21.388;2023-03-16T02:10:54;0.16;;;0.16;;
42668;SDS011;29384;42.028;21.388;2023-03-16T02:13:21;0.30;;;0.30;;
42668;SDS011;29384;42.028;21.388;2023-03-16T02:15:46;2.45;;;0.40;;
42668;SDS011;29384;42.028;21.388;2023-03-16T02:18:12;0.47;;;0.47;;
42668;SDS011;29384;42.028;21.388;2023-03-16T02:20:41;0.20;;;0.20;;
42668;SDS011;29384;42.028;21.388;2023-03-16T02:23:08;0.17;;;0.17;;
42668;SDS011;29384;42.028;21.388;2023-03-16T02:25:52;0.28;;;0.28;;
42668;SDS011;29384;42.028;21.388;2023-03-16T02:31:03;0.38;;;0.38;;
42668;SDS011;29384;42.028;21.388;2023-03-16T02:33:29;0.17;;;0.17;;
42668;SDS011;29384;42.028;21.388;2023-03-16T02:35:56;0.10;;;0.10;;
42668;SDS011;29384;42.028;21.388;2023-03-16T02:38:21;0.30;;;0.30;;
42668;SDS011;29384;42.028;21.388;2023-03-16T02:40:53;0.30;;;0.30;;
42668;SDS011;29384;42.028;21.388;2023-03-16T02:43:22;4.30;;;0.40;;
42668;SDS011;29384;42.028;21.388;2023-03-16T02:45:50;0.10;;;0.10;;
42668;SDS011;29384;42.028;21.388;2023-03-16T02:48:32;0.08;;;0.08;;
42668;SDS011;29384;42.028;21.388;2023-03-16T02:50:59;0.10;;;0.10;;
42668;SDS011;29384;42.028;21.388;2023-03-16T02:53:25;0.10;;;0.10;;
42668;SDS011;29384;42.028;21.388;2023-03-16T02:55:50;0.10;;;0.10;;
42668;SDS011;29384;42.028;21.388;2023-03-16T02:58:15;0.10;;;0.10;;
42668;SDS011;29384;42.028;21.388;2023-03-16T03:03:43;0.10;;;0.10;;
42668;SDS011;29384;42.028;21.388;2023-03-16T03:06:09;1.13;;;0.28;;
42668;SDS011;29384;42.028;21.388;2023-03-16T03:08:34;0.20;;;0.20;;
42668;SDS011;29384;42.028;21.388;2023-03-16T03:11:00;0.20;;;0.20;;
42668;SDS011;29384;42.028;21.388;2023-03-16T03:13:25;0.50;;;0.50;;
42668;SDS011;29384;42.028;21.388;2023-03-16T03:18:53;0.22;;;0.22;;
42668;SDS011;29384;42.028;21.388;2023-03-16T03:21:19;0.30;;;0.30;;
42668;SDS011;29384;42.028;21.388;2023-03-16T03:23:44;0.10;;;0.10;;
42668;SDS011;29384;42.028;21.388;2023-03-16T03:26:11;0.47;;;0.47;;
42668;SDS011;29384;42.028;21.388;2023-03-16T03:28:36;0.90;;;0.50;;
42668;SDS011;29384;42.028;21.388;2023-03-16T03:31:01;2.15;;;0.50;;
42668;SDS011;29384;42.028;21.388;2023-03-16T03:33:27;0.60;;;0.60;;
42668;SDS011;29384;42.028;21.388;2023-03-16T03:35:56;0.70;;;0.70;;
42668;SDS011;29384;42.028;21.388;2023-03-16T03:38:22;0.50;;;0.50;;
42668;SDS011;29384;42.028;21.388;2023-03-16T03:40:49;0.20;;;0.20;;
42668;SDS011;29384;42.028;21.388;2023-03-16T03:43:14;0.30;;;0.30;;
42668;SDS011;29384;42.028;21.388;2023-03-16T03:48:42;0.75;;;0.43;;
42668;SDS011;29384;42.028;21.388;2023-03-16T03:51:07;0.50;;;0.50;;
42668;SDS011;29384;42.028;21.388;2023-03-16T03:53:33;0.43;;;0.43;;
42668;SDS011;29384;42.028;21.388;2023-03-16T03:55:58;0.38;;;0.38;;
42668;SDS011;29384;42.028;21.388;2023-03-16T03:58:23;0.40;;;0.40;;
42668;SDS011;29384;42.028;21.388;2023-03-16T04:03:51;1.55;;;0.57;;
42668;SDS011;29384;42.028;21.388;2023-03-16T04:06:17;0.30;;;0.30;;
42668;SDS011;29384;42.028;21.388;2023-03-16T04:08:42;1.40;;;0.52;;
42668;SDS011;29384;42.028;21.388;2023-03-16T04:11:07;1.58;;;0.52;;
42668;SDS011;29384;42.028;21.388;2023-03-16T04:13:33;0.80;;;0.55;;
42668;SDS011;29384;42.028;21.388;2023-03-16T04:19:02;1.00;;;0.28;;
42668;SDS011;29384;42.028;21.388;2023-03-16T04:21:27;0.22;;;0.22;;
42668;SDS011;29384;42.028;21.388;2023-03-16T04:23:52;0.10;;;0.10;;
42668;SDS011;29384;42.028;21.388;2023-03-16T04:26:18;0.10;;;0.10;;
42668;SDS011;29384;42.028;21.388;2023-03-16T04:28:44;0.40;;;0.40;;
42668;SDS011;29384;42.028;21.388;2023-03-16T04:34:12;0.30;;;0.30;;
42668;SDS011;29384;42.028;21.388;2023-03-16T04:36:38;0.28;;;0.28;;
42668;SDS011;29384;42.028;21.388;2023-03-16T04:39:03;0.10;;;0.10;;
42668;SDS011;29384;42.028;21.388;2023-03-16T04:41:29;0.20;;;0.20;;
42668;SDS011;29384;42.028;21.388;2023-03-16T04:43:55;0.30;;;0.20;;
42668;SDS011;29384;42.028;21.388;2023-03-16T04:46:22;0.30;;;0.30;;
42668;SDS011;29384;42.028;21.388;2023-03-16T04:48:48;0.20;;;0.20;;
42668;SDS011;29384;42.028;21.388;2023-03-16T04:51:14;0.10;;;0.10;;
42668;SDS011;29384;42.028;21.388;2023-03-16T04:53:39;0.20;;;0.20;;
42668;SDS011;29384;42.028;21.388;2023-03-16T04:56:04;2.65;;;0.30;;
42668;SDS011;29384;42.028;21.388;2023-03-16T04:58:31;0.30;;;0.30;;
42668;SDS011;29384;42.028;21.388;2023-03-16T05:03:59;0.10;;;0.10;;
42668;SDS011;29384;42.028;21.388;2023-03-16T05:06:26;2.05;;;0.20;;
42668;SDS011;29384;42.028;21.388;2023-03-16T05:08:51;0.25;;;0.25;;
42668;SDS011;29384;42.028;21.388;2023-03-16T05:11:17;0.45;;;0.45;;
42668;SDS011;29384;42.028;21.388;2023-03-16T05:13:42;0.22;;;0.22;;
42668;SDS011;29384;42.028;21.388;2023-03-16T05:19:10;0.30;;;0.30;;
42668;SDS011;29384;42.028;21.388;2023-03-16T05:21:36;0.28;;;0.28;;
42668;SDS011;29384;42.028;21.388;2023-03-16T05:24:05;0.30;;;0.30;;
42668;SDS011;29384;42.028;21.388;2023-03-16T05:26:30;0.20;;;0.20;;
42668;SDS011;29384;42.028;21.388;2023-03-16T05:28:56;1.92;;;0.22;;
42668;SDS011;29384;42.028;21.388;2023-03-16T05:34:25;0.20;;;0.20;;
42668;SDS011;29384;42.028;21.388;2023-03-16T05:36:50;0.20;;;0.20;;
42668;SDS011;29384;42.028;21.388;2023-03-16T05:39:15;0.20;;;0.20;;
42668;SDS011;29384;42.028;21.388;2023-03-16T05:41:41;0.20;;;0.20;;
42668;SDS011;29384;42.028;21.388;2023-03-16T05:44:06;2.65;;;0.40;;
42668;SDS011;29384;42.028;21.388;2023-03-16T05:49:35;0.30;;;0.30;;
42668;SDS011;29384;42.028;21.388;2023-03-16T05:52:00;0.45;;;0.45;;
42668;SDS011;29384;42.028;21.388;2023-03-16T05:54:25;0.65;;;0.30;;
42668;SDS011;29384;42.028;21.388;2023-03-16T05:56:50;0.38;;;0.38;;
42668;SDS011;29384;42.028;21.388;2023-03-16T05:59:16;0.57;;;0.57;;
42668;SDS011;29384;42.028;21.388;2023-03-16T06:01:42;0.40;;;0.40;;
42668;SDS011;29384;42.028;21.388;2023-03-16T06:04:07;1.65;;;0.50;;
42668;SDS011;29384;42.028;21.388;2023-03-16T06:06:32;0.30;;;0.30;;
42668;SDS011;29384;42.028;21.388;2023-03-16T06:08:58;0.30;;;0.30;;
42668;SDS011;29384;42.028;21.388;2023-03-16T06:11:23;0.20;;;0.20;;
42668;SDS011;29384;42.028;21.388;2023-03-16T06:13:49;1.58;;;0.45;;
42668;SDS011;29384;42.028;21.388;2023-03-16T06:19:17;0.30;;;0.30;;
42668;SDS011;29384;42.028;21.388;2023-03-16T06:21:42;0.40;;;0.40;;
42668;SDS011;29384;42.028;21.388;2023-03-16T06:24:07;0.57;;;0.57;;
42668;SDS011;29384;42.028;21.388;2023-03-16T06:26:33;0.40;;;0.40;;
42668;SDS011;29384;42.028;21.388;2023-03-16T06:28:59;3.40;;;0.45;;
42668;SDS011;29384;42.028;21.388;2023-03-16T06:34:26;0.20;;;0.20;;
42668;SDS011;29384;42.028;21.388;2023-03-16T06:36:52;0.20;;;0.20;;
42668;SDS011;29384;42.028;21.388;2023-03-16T06:39:17;0.17;;;0.17;;
42668;SDS011;29384;42.028;21.388;2023-03-16T06:41:42;0.32;;;0.32;;
42668;SDS011;29384;42.028;21.388;2023-03-16T06:44:08;0.50;;;0.50;;
42668;SDS011;29384;42.028;21.388;2023-03-16T06:49:36;0.52;;;0.52;;
42668;SDS011;29384;42.028;21.388;2023-03-16T06:52:02;0.50;;;0.50;;
42668;SDS011;29384;42.028;21.388;2023-03-16T06:54:27;0.47;;;0.35;;
42668;SDS011;29384;42.028;21.388;2023-03-16T06:56:53;0.38;;;0.38;;
42668;SDS011;29384;42.028;21.388;2023-03-16T06:59:18;0.32;;;0.32;;
42668;SDS011;29384;42.028;21.388;2023-03-16T07:04:46;0.38;;;0.38;;
42668;SDS011;29384;42.028;21.388;2023-03-16T07:07:11;0.60;;;0.60;;
42668;SDS011;29384;42.028;21.388;2023-03-16T07:09:37;0.30;;;0.30;;
42668;SDS011;29384;42.028;21.388;2023-03-16T07:12:02;0.50;;;0.50;;
42668;SDS011;29384;42.028;21.388;2023-03-16T07:14:27;0.43;;;0.43;;
42668;SDS011;29384;42.028;21.388;2023-03-16T07:19:55;0.63;;;0.63;;
42668;SDS011;29384;42.028;21.388;2023-03-16T07:22:21;0.75;;;0.75;;
42668;SDS011;29384;42.028;21.388;2023-03-16T07:24:46;0.88;;;0.88;;
42668;SDS011;29384;42.028;21.388;2023-03-16T07:27:15;1.38;;;0.63;;
42668;SDS011;29384;42.028;21.388;2023-03-16T07:29:41;0.55;;;0.55;;
42668;SDS011;29384;42.028;21.388;2023-03-16T07:32:06;0.85;;;0.85;;
42668;SDS011;29384;42.028;21.388;2023-03-16T07:34:31;0.80;;;0.80;;
42668;SDS011;29384;42.028;21.388;2023-03-16T07:36:57;0.25;;;0.25;;
42668;SDS011;29384;42.028;21.388;2023-03-16T07:39:22;0.70;;;0.70;;
42668;SDS011;29384;42.028;21.388;2023-03-16T07:41:48;0.70;;;0.70;;
42668;SDS011;29384;42.028;21.388;2023-03-16T07:44:13;0.82;;;0.65;;
42668;SDS011;29384;42.028;21.388;2023-03-16T07:49:41;1.00;;;0.75;;
42668;SDS011;29384;42.028;21.388;2023-03-16T07:52:08;0.73;;;0.73;;
42668;SDS011;29384;42.028;21.388;2023-03-16T07:54:33;0.80;;;0.80;;
42668;SDS011;29384;42.028;21.388;2023-03-16T07:56:59;0.50;;;0.50;;
42668;SDS011;29384;42.028;21.388;2023-03-16T07:59:25;0.47;;;0.47;;
42668;SDS011;29384;42.028;21.388;2023-03-16T08:04:53;0.98;;;0.85;;
42668;SDS011;29384;42.028;21.388;2023-03-16T08:07:18;1.00;;;1.00;;
42668;SDS011;29384;42.028;21.388;2023-03-16T08:09:43;0.70;;;0.70;;
42668;SDS011;29384;42.028;21.388;2023-03-16T08:12:08;0.47;;;0.47;;
42668;SDS011;29384;42.028;21.388;2023-03-16T08:14:34;0.50;;;0.50;;
42668;SDS011;29384;42.028;21.388;2023-03-16T08:20:03;1.25;;;0.90;;
42668;SDS011;29384;42.028;21.388;2023-03-16T08:22:32;0.57;;;0.40;;
42668;SDS011;29384;42.028;21.388;2023-03-16T08:24:57;0.75;;;0.75;;
42668;SDS011;29384;42.028;21.388;2023-03-16T08:27:22;0.55;;;0.55;;
42668;SDS011;29384;42.028;21.388;2023-03-16T08:29:53;0.50;;;0.50;;
42668;SDS011;29384;42.028;21.388;2023-03-16T08:35:21;1.00;;;1.00;;
42668;SDS011;29384;42.028;21.388;2023-03-16T08:37:46;0.50;;;0.50;;
42668;SDS011;29384;42.028;21.388;2023-03-16T08:40:13;0.70;;;0.60;;
42668;SDS011;29384;42.028;21.388;2023-03-16T08:42:41;0.63;;;0.43;;
42668;SDS011;29384;42.028;21.388;2023-03-16T08:45:07;0.73;;;0.68;;
42668;SDS011;29384;42.028;21.388;2023-03-16T08:50:54;0.50;;;0.47;;
42668;SDS011;29384;42.028;21.388;2023-03-16T08:53:19;0.88;;;0.88;;
42668;SDS011;29384;42.028;21.388;2023-03-16T08:55:45;1.80;;;0.50;;
42668;SDS011;29384;42.028;21.388;2023-03-16T08:58:11;0.50;;;0.50;;
42668;SDS011;29384;42.028;21.388;2023-03-16T09:00:36;0.35;;;0.35;;
42668;SDS011;29384;42.028;21.388;2023-03-16T09:03:02;0.40;;;0.40;;
42668;SDS011;29384;42.028;21.388;2023-03-16T09:05:27;0.45;;;0.38;;
42668;SDS011;29384;42.028;21.388;2023-03-16T09:07:53;0.73;;;0.73;;
42668;SDS011;29384;42.028;21.388;2023-03-16T09:10:19;0.82;;;0.20;;
42668;SDS011;29384;42.028;21.388;2023-03-16T09:12:47;0.77;;;0.77;;
42668;SDS011;29384;42.028;21.388;2023-03-16T09:15:13;0.40;;;0.40;;
42668;SDS011;29384;42.028;21.388;2023-03-16T09:20:40;0.40;;;0.40;;
42668;SDS011;29384;42.028;21.388;2023-03-16T09:23:06;0.68;;;0.60;;
42668;SDS011;29384;42.028;21.388;2023-03-16T09:25:32;0.60;;;0.60;;
42668;SDS011;29384;42.028;21.388;2023-03-16T09:27:57;0.52;;;0.52;;
42668;SDS011;29384;42.028;21.388;2023-03-16T09:30:23;0.52;;;0.52;;
42668;SDS011;29384;42.028;21.388;2023-03-16T09:32:48;0.65;;;0.65;;
42668;SDS011;29384;42.028;21.388;2023-03-16T09:35:14;0.70;;;0.70;;
42668;SDS011;29384;42.028;21.388;2023-03-16T09:37:41;0.60;;;0.60;;
42668;SDS011;29384;42.028;21.388;2023-03-16T09:40:06;0.85;;;0.85;;
42668;SDS011;29384;42.028;21.388;2023-03-16T09:42:35;6.97;;;1.10;;
42668;SDS011;29384;42.028;21.388;2023-03-16T09:45:05;1.15;;;1.15;;
42668;SDS011;29384;42.028;21.388;2023-03-16T09:50:37;1.73;;;0.70;;
42668;SDS011;29384;42.028;21.388;2023-03-16T09:53:23;2.58;;;0.70;;
42668;SDS011;29384;42.028;21.388;2023-03-16T09:55:52;1.10;;;1.00;;
42668;SDS011;29384;42.028;21.388;2023-03-16T09:58:20;0.93;;;0.93;;
42668;SDS011;29384;42.028;21.388;2023-03-16T10:03:21;0.80;;;0.80;;
42668;SDS011;29384;42.028;21.388;2023-03-16T10:05:58;4.90;;;1.20;;
42668;SDS011;29384;42.028;21.388;2023-03-16T10:08:25;1.83;;;1.10;;
42668;SDS011;29384;42.028;21.388;2023-03-16T10:16:12;1.38;;;0.80;;
42668;SDS011;29384;42.028;21.388;2023-03-16T10:18:42;1.25;;;1.15;;
42668;SDS011;29384;42.028;21.388;2023-03-16T10:21:13;1.30;;;1.17;;
42668;SDS011;29384;42.028;21.388;2023-03-16T10:23:39;0.95;;;0.95;;
42668;SDS011;29384;42.028;21.388;2023-03-16T10:26:09;5.10;;;1.63;;
42668;SDS011;29384;42.028;21.388;2023-03-16T10:31:07;2.67;;;1.67;;
42668;SDS011;29384;42.028;21.388;2023-03-16T10:33:34;2.25;;;1.25;;
42668;SDS011;29384;42.028;21.388;2023-03-16T10:40:55;3.30;;;1.38;;
42668;SDS011;29384;42.028;21.388;2023-03-16T10:43:22;1.50;;;1.40;;
42668;SDS011;29384;42.028;21.388;2023-03-16T10:45:48;1.85;;;0.90;;
42668;SDS011;29384;42.028;21.388;2023-03-16T10:48:18;1.48;;;1.10;;
42668;SDS011;29384;42.028;21.388;2023-03-16T10:50:50;3.17;;;1.63;;
42668;SDS011;29384;42.028;21.388;2023-03-16T10:53:24;2.22;;;1.58;;
42668;SDS011;29384;42.028;21.388;2023-03-16T10:55:55;0.77;;;0.73;;
42668;SDS011;29384;42.028;21.388;2023-03-16T10:58:24;1.10;;;1.10;;
42668;SDS011;29384;42.028;21.388;2023-03-16T11:00:50;1.00;;;1.00;;
42668;SDS011;29384;42.028;21.388;2023-03-16T11:03:26;1.98;;;1.60;;
42668;SDS011;29384;42.028;21.388;2023-03-16T11:05:56;4.50;;;1.20;;
42668;SDS011;29384;42.028;21.388;2023-03-16T11:08:24;2.42;;;1.15;;
42668;SDS011;29384;42.028;21.388;2023-03-16T11:10:55;1.33;;;1.17;;
42668;SDS011;29384;42.028;21.388;2023-03-16T11:13:23;3.15;;;1.65;;
42668;SDS011;29384;42.028;21.388;2023-03-16T11:24:29;2.03;;;1.77;;
42668;SDS011;29384;42.028;21.388;2023-03-16T11:26:57;13.60;;;2.05;;
42668;SDS011;29384;42.028;21.388;2023-03-16T11:32:04;1.95;;;1.95;;
42668;SDS011;29384;42.028;21.388;2023-03-16T11:34:31;2.17;;;2.10;;
42668;SDS011;29384;42.028;21.388;2023-03-16T11:42:24;2.20;;;1.67;;
42668;SDS011;29384;42.028;21.388;2023-03-16T11:47:56;2.10;;;2.00;;
42668;SDS011;29384;42.028;21.388;2023-03-16T11:50:32;1.67;;;1.58;;
42668;SDS011;29384;42.028;21.388;2023-03-16T11:53:00;1.73;;;1.60;;
42668;SDS011;29384;42.028;21.388;2023-03-16T11:58:29;1.88;;;1.77;;
42668;SDS011;29384;42.028;21.388;2023-03-16T12:03:31;3.92;;;2.25;;
42668;SDS011;29384;42.028;21.388;2023-03-16T12:16:05;3.05;;;2.00;;
42668;SDS011;29384;42.028;21.388;2023-03-16T12:18:41;5.38;;;2.88;;
42668;SDS011;29384;42.028;21.388;2023-03-16T12:21:11;2.75;;;2.38;;
42668;SDS011;29384;42.028;21.388;2023-03-16T12:26:09;2.90;;;2.70;;
42668;SDS011;29384;42.028;21.388;2023-03-16T12:28:36;2.78;;;2.15;;
42668;SDS011;29384;42.028;21.388;2023-03-16T12:31:06;3.33;;;2.25;;
42668;SDS011;29384;42.028;21.388;2023-03-16T12:33:42;2.10;;;1.88;;
42668;SDS011;29384;42.028;21.388;2023-03-16T12:38:45;3.55;;;1.83;;
42668;SDS011;29384;42.028;21.388;2023-03-16T12:44:31;3.75;;;2.08;;
42668;SDS011;29384;42.028;21.388;2023-03-16T12:49:32;4.10;;;2.10;;
42668;SDS011;29384;42.028;21.388;2023-03-16T12:51:59;3.28;;;2.20;;
42668;SDS011;29384;42.028;21.388;2023-03-16T12:54:25;3.00;;;1.80;;
42668;SDS011;29384;42.028;21.388;2023-03-16T12:56:52;6.15;;;3.50;;
42668;SDS011;29384;42.028;21.388;2023-03-16T12:59:34;8.38;;;2.45;;
42668;SDS011;29384;42.028;21.388;2023-03-16T13:07:32;4.60;;;2.45;;
42668;SDS011;29384;42.028;21.388;2023-03-16T13:09:59;4.97;;;2.63;;
42668;SDS011;29384;42.028;21.388;2023-03-16T13:12:28;3.17;;;2.35;;
42668;SDS011;29384;42.028;21.388;2023-03-16T13:14:56;3.92;;;1.95;;
42668;SDS011;29384;42.028;21.388;2023-03-16T13:20:29;3.60;;;2.10;;
42668;SDS011;29384;42.028;21.388;2023-03-16T13:25:39;22.65;;;3.58;;
42668;SDS011;29384;42.028;21.388;2023-03-16T13:28:07;5.75;;;2.70;;
42668;SDS011;29384;42.028;21.388;2023-03-16T13:30:35;3.33;;;3.10;;
42668;SDS011;29384;42.028;21.388;2023-03-16T13:36:04;2.67;;;2.47;;
42668;SDS011;29384;42.028;21.388;2023-03-16T13:38:30;7.00;;;3.53;;
42668;SDS011;29384;42.028;21.388;2023-03-16T13:40:57;12.43;;;2.40;;
42668;SDS011;29384;42.028;21.388;2023-03-16T13:43:26;3.10;;;2.47;;
42668;SDS011;29384;42.028;21.388;2023-03-16T13:45:52;3.55;;;3.25;;
42668;SDS011;29384;42.028;21.388;2023-03-16T13:51:20;3.17;;;2.65;;
42668;SDS011;29384;42.028;21.388;2023-03-16T13:53:46;9.48;;;3.53;;
42668;SDS011;29384;42.028;21.388;2023-03-16T13:56:14;6.10;;;2.40;;
42668;SDS011;29384;42.028;21.388;2023-03-16T13:58:42;3.45;;;2.75;;
42668;SDS011;29384;42.028;21.388;2023-03-16T14:01:41;2.90;;;2.40;;
42668;SDS011;29384;42.028;21.388;2023-03-16T14:07:02;3.28;;;2.80;;
42668;SDS011;29384;42.028;21.388;2023-03-16T14:09:28;7.90;;;3.25;;
42668;SDS011;29384;42.028;21.388;2023-03-16T14:11:55;3.08;;;2.83;;
42668;SDS011;29384;42.028;21.388;2023-03-16T14:14:37;9.00;;;3.03;;
42668;SDS011;29384;42.028;21.388;2023-03-16T14:28:29;8.10;;;3.03;;
42668;SDS011;29384;42.028;21.388;2023-03-16T14:31:05;2.67;;;2.58;;
42668;SDS011;29384;42.028;21.388;2023-03-16T14:33:32;4.05;;;2.50;;
42668;SDS011;29384;42.028;21.388;2023-03-16T14:35:58;13.77;;;2.67;;
42668;SDS011;29384;42.028;21.388;2023-03-16T14:38:28;3.13;;;2.88;;
42668;SDS011;29384;42.028;21.388;2023-03-16T14:40:57;2.15;;;2.05;;
42668;SDS011;29384;42.028;21.388;2023-03-16T14:43:30;3.15;;;2.42;;
42668;SDS011;29384;42.028;21.388;2023-03-16T14:45:57;3.78;;;2.90;;
42668;SDS011;29384;42.028;21.388;2023-03-16T14:48:22;4.50;;;3.08;;
42668;SDS011;29384;42.028;21.388;2023-03-16T14:50:50;4.85;;;2.95;;
42668;SDS011;29384;42.028;21.388;2023-03-16T14:53:18;3.30;;;2.58;;
42668;SDS011;29384;42.028;21.388;2023-03-16T14:55:43;9.45;;;2.78;;
42668;SDS011;29384;42.028;21.388;2023-03-16T14:58:09;2.95;;;2.75;;
42668;SDS011;29384;42.028;21.388;2023-03-16T15:00:34;2.78;;;2.58;;
42668;SDS011;29384;42.028;21.388;2023-03-16T15:03:02;3.10;;;2.47;;
42668;SDS011;29384;42.028;21.388;2023-03-16T15:05:31;4.03;;;3.00;;
42668;SDS011;29384;42.028;21.388;2023-03-16T15:07:58;2.50;;;2.30;;
42668;SDS011;29384;42.028;21.388;2023-03-16T15:10:24;10.48;;;2.88;;
42668;SDS011;29384;42.028;21.388;2023-03-16T15:12:50;2.90;;;2.47;;
42668;SDS011;29384;42.028;21.388;2023-03-16T15:15:22;7.35;;;2.92;;
42668;SDS011;29384;42.028;21.388;2023-03-16T15:17:48;2.60;;;2.40;;
42668;SDS011;29384;42.028;21.388;2023-03-16T15:20:15;4.97;;;3.10;;
42668;SDS011;29384;42.028;21.388;2023-03-16T15:22:41;2.70;;;2.58;;
42668;SDS011;29384;42.028;21.388;2023-03-16T15:25:18;2.78;;;2.67;;
42668;SDS011;29384;42.028;21.388;2023-03-16T15:27:47;4.82;;;2.83;;
42668;SDS011;29384;42.028;21.388;2023-03-16T15:30:20;23.20;;;3.22;;
42668;SDS011;29384;42.028;21.388;2023-03-16T15:32:46;9.03;;;3.07;;
42668;SDS011;29384;42.028;21.388;2023-03-16T15:35:11;5.95;;;3.47;;
42668;SDS011;29384;42.028;21.388;2023-03-16T15:37:36;6.38;;;2.47;;
42668;SDS011;29384;42.028;21.388;2023-03-16T15:40:12;3.50;;;2.33;;
42668;SDS011;29384;42.028;21.388;2023-03-16T15:42:39;1.30;;;1.20;;
42668;SDS011;29384;42.028;21.388;2023-03-16T15:45:07;1.40;;;1.30;;
42668;SDS011;29384;42.028;21.388;2023-03-16T15:47:34;2.53;;;1.50;;
42668;SDS011;29384;42.028;21.388;2023-03-16T15:53:07;3.00;;;0.88;;
42668;SDS011;29384;42.028;21.388;2023-03-16T15:55:43;4.15;;;1.70;;
42668;SDS011;29384;42.028;21.388;2023-03-16T15:58:18;2.75;;;1.00;;
42668;SDS011;29384;42.028;21.388;2023-03-16T16:00:45;1.40;;;1.30;;
42668;SDS011;29384;42.028;21.388;2023-03-16T16:03:12;1.00;;;0.98;;
42668;SDS011;29384;42.028;21.388;2023-03-16T16:05:38;1.40;;;1.38;;
42668;SDS011;29384;42.028;21.388;2023-03-16T16:08:03;1.13;;;1.02;;
42668;SDS011;29384;42.028;21.388;2023-03-16T16:10:29;2.25;;;1.10;;
42668;SDS011;29384;42.028;21.388;2023-03-16T16:12:54;5.10;;;1.67;;
42668;SDS011;29384;42.028;21.388;2023-03-16T16:15:24;1.92;;;1.23;;
42668;SDS011;29384;42.028;21.388;2023-03-16T16:17:53;0.93;;;0.93;;
42668;SDS011;29384;42.028;21.388;2023-03-16T16:20:29;18.55;;;9.13;;
42668;SDS011;29384;42.028;21.388;2023-03-16T16:22:54;3.28;;;2.63;;
42668;SDS011;29384;42.028;21.388;2023-03-16T16:25:24;6.63;;;5.43;;
42668;SDS011;29384;42.028;21.388;2023-03-16T16:27:50;2.97;;;2.78;;
42668;SDS011;29384;42.028;21.388;2023-03-16T16:30:25;3.70;;;1.85;;
42668;SDS011;29384;42.028;21.388;2023-03-16T16:32:51;2.67;;;2.22;;
42668;SDS011;29384;42.028;21.388;2023-03-16T16:35:18;2.42;;;2.22;;
42668;SDS011;29384;42.028;21.388;2023-03-16T16:37:44;4.45;;;2.22;;
42668;SDS011;29384;42.028;21.388;2023-03-16T16:40:38;2.72;;;1.15;;
42668;SDS011;29384;42.028;21.388;2023-03-16T16:42:57;1.73;;;0.90;;
42668;SDS011;29384;42.028;21.388;2023-03-16T16:45:26;3.10;;;1.20;;
42668;SDS011;29384;42.028;21.388;2023-03-16T16:47:53;3.22;;;1.55;;
42668;SDS011;29384;42.028;21.388;2023-03-16T16:53:22;1.35;;;1.35;;
42668;SDS011;29384;42.028;21.388;2023-03-16T16:55:48;1.55;;;1.05;;
42668;SDS011;29384;42.028;21.388;2023-03-16T16:58:13;3.97;;;2.90;;
42668;SDS011;29384;42.028;21.388;2023-03-16T17:00:39;3.45;;;1.17;;
42668;SDS011;29384;42.028;21.388;2023-03-16T17:03:18;3.88;;;1.27;;
42668;SDS011;29384;42.028;21.388;2023-03-16T17:05:44;2.60;;;1.65;;
42668;SDS011;29384;42.028;21.388;2023-03-16T17:08:10;2.53;;;1.23;;
42668;SDS011;29384;42.028;21.388;2023-03-16T17:10:36;1.20;;;1.10;;
42668;SDS011;29384;42.028;21.388;2023-03-16T17:13:01;1.17;;;1.00;;
42668;SDS011;29384;42.028;21.388;2023-03-16T17:15:28;1.60;;;1.50;;
42668;SDS011;29384;42.028;21.388;2023-03-16T17:17:57;2.60;;;1.02;;
42668;SDS011;29384;42.028;21.388;2023-03-16T17:23:28;1.45;;;1.23;;
42668;SDS011;29384;42.028;21.388;2023-03-16T17:25:55;3.40;;;1.23;;
42668;SDS011;29384;42.028;21.388;2023-03-16T17:28:21;2.08;;;1.33;;
42668;SDS011;29384;42.028;21.388;2023-03-16T17:30:47;3.47;;;1.00;;
42668;SDS011;29384;42.028;21.388;2023-03-16T17:33:13;1.08;;;1.08;;
42668;SDS011;29384;42.028;21.388;2023-03-16T17:35:39;3.45;;;1.80;;
42668;SDS011;29384;42.028;21.388;2023-03-16T17:40:40;1.98;;;1.05;;
42668;SDS011;29384;42.028;21.388;2023-03-16T17:43:07;3.00;;;1.40;;
42668;SDS011;29384;42.028;21.388;2023-03-16T17:45:36;2.28;;;1.13;;
42668;SDS011;29384;42.028;21.388;2023-03-16T17:48:01;3.60;;;1.35;;
42668;SDS011;29384;42.028;21.388;2023-03-16T17:53:29;1.85;;;1.10;;
42668;SDS011;29384;42.028;21.388;2023-03-16T17:55:54;1.63;;;0.95;;
42668;SDS011;29384;42.028;21.388;2023-03-16T17:58:26;1.13;;;1.02;;